NCAR-RAP Real-Time Weather Data

Output produced by METARs form (10 April 2020  07:19 UTC)
found at http://weather.rap.ucar.edu/surface/
 
KAUS 100653Z 33003KT 10SM FEW200 BKN250 18/17 A2993 RMK AO2 SLP124 T01830172
KAUS 100553Z 32005KT 10SM SCT120 BKN200 19/18 A2993 RMK AO2 SLP128 60003 T01940178 10217 20183 403280183 50008
KAUS 100453Z 33003KT 10SM SCT110 BKN200 19/18 A2995 RMK AO2 SLP134 T01940178
KAUS 100353Z 33003KT 10SM BKN120 BKN200 19/17 A2994 RMK AO2 SLP132 T01940172
KAUS 100253Z 12007KT 10SM FEW041 SCT095 BKN120 20/18 A2991 RMK AO2 RAB05E41 SLP120 P0001 60003 T02000178 50013
KAUS 100153Z 00000KT 10SM FEW038 SCT070 BKN100 19/18 A2993 RMK AO2 RAB0056E30 PRESRR SLP126 P0001 T01940178
KAUS 100053Z 02006KT 10SM BKN100 OVC120 21/17 A2989 RMK AO2 RAE09 SLP113 P0001 T02110172
KAUS 092353Z 03010KT 10SM -RA BKN075 BKN110 22/17 A2987 RMK AO2 RAB50 SLP108 P0000 60020 T02170172 10328 20200 53002
KAUS 092253Z 02010KT 10SM FEW040 BKN120 BKN150 23/18 A2983 RMK AO2 SLP095 T02280183
KAUS 092153Z 02012KT 10SM FEW010 SCT040 BKN120 21/19 A2985 RMK AO2 RAE38 TSE36 SLP101 TS MOV E P0020 T02110189
KAUS 092137Z 01013KT 9SM -RA FEW015 BKN040 BKN049 22/19 A2984 RMK AO2 TSE36 PRESFR TS MOV E P0020 T02170194
KAUS 092053Z 36013G21KT 8SM -TSRA BKN037CB OVC150 22/19 A2986 RMK AO2 PK WND 35032/2032 RAB34 TSB49 SLP106 FRQ LTGICCC W TS W MOV E P0000 60000 T02170189 53007
KAUS 091953Z 20005KT 10SM FEW035 BKN150 BKN200 31/23 A2981 RMK AO2 SLP082 T03110233
KAUS 091853Z 00000KT 9SM FEW035 SCT150 BKN200 33/24 A2981 RMK AO2 SLP083 T03280239
KAUS 091753Z 16003KT 9SM FEW090 SCT150 BKN200 31/24 A2985 RMK AO2 SLP095 T03060239 10306 20200 58014 $
KAUS 091653Z 24003KT 8SM SCT150 OVC200 29/24 A2988 RMK AO2 SLP108 T02940239 $
KAUS 091553Z 22003KT 7SM SCT150 OVC200 27/23 A2988 RMK AO2 SLP109 T02720233 $
KAUS 091453Z 21003KT 6SM BR SCT150 BKN200 26/23 A2989 RMK AO2 SLP112 T02560228 51010 $
KAUS 091353Z 21005KT 5SM BR SCT150 BKN200 24/23 A2988 RMK AO2 SLP109 T02440228 $
KAUS 091253Z 18003KT 5SM BR FEW120 BKN200 22/22 A2987 RMK AO2 SLP105 T02220217 $
KAUS 091153Z 19003KT 4SM BR BKN200 22/21 A2986 RMK AO2 SLP101 T02170211 10250 20206 53002 $
KAUS 091053Z 21004KT 5SM BR BKN200 22/21 A2985 RMK AO2 SLP099 T02170211 $
KAUS 090953Z 00000KT 5SM BR FEW010 BKN200 22/21 A2985 RMK AO2 SLP098 T02220211 $
KAUS 090853Z 00000KT 6SM BR SCT010 BKN200 22/21 A2985 RMK AO2 SLP098 T02170211 58011 $